Terminal Aerodrome Forecast
Issued by NWS

Home | Current Version | Previous Version | Text Only | Print | Product List | Glossary On
Versions: 1 2 3 4 5 6 7 8 9 10 11 12 13 14 15
000
FTUS45 KABQ 261700
TAFFMN
TAF
KFMN 261739Z 2618/2718 28011KT P6SM SCT150
     FM262100 29012G23KT P6SM SCT100
     FM270200 32008KT P6SM VCSH BKN120
     FM270500 VRB05KT P6SM SCT150
     FM271200 11008KT P6SM SCT150=

USA.gov is the U.S. government's official web portal to all federal, state and local government web resources and services.